createdAt,value
2023-01-27T00:00:37.566Z,15.55
2023-01-27T00:03:04.497Z,16.00
2023-01-27T00:05:31.321Z,14.95
2023-01-27T00:07:58.798Z,15.93
2023-01-27T00:10:26.687Z,13.15
2023-01-27T00:13:12.358Z,14.23
2023-01-27T00:15:39.564Z,14.25
2023-01-27T00:18:08.152Z,14.60
2023-01-27T00:20:53.437Z,13.70
2023-01-27T00:23:41.568Z,13.57
2023-01-27T00:26:11.307Z,13.98
2023-01-27T00:28:39.804Z,13.88
2023-01-27T00:31:26.640Z,13.57
2023-01-27T00:34:02.195Z,12.95
2023-01-27T00:36:30.107Z,13.77
2023-01-27T00:38:57.598Z,13.65
2023-01-27T00:41:24.584Z,12.50
2023-01-27T00:43:53.740Z,13.70
2023-01-27T00:46:23.056Z,14.25
2023-01-27T00:48:51.961Z,13.43
2023-01-27T00:51:19.756Z,13.27
2023-01-27T00:53:47.298Z,13.02
2023-01-27T00:56:14.752Z,14.40
2023-01-27T00:58:42.408Z,13.30
2023-01-27T01:01:13.988Z,14.25
2023-01-27T01:03:41.412Z,15.35
2023-01-27T01:06:10.935Z,13.10
2023-01-27T01:08:39.116Z,13.65
2023-01-27T01:11:07.894Z,14.73
2023-01-27T01:13:35.173Z,16.35
2023-01-27T01:16:22.450Z,15.23
2023-01-27T01:18:49.425Z,13.50
2023-01-27T01:21:16.896Z,15.27
2023-01-27T01:23:45.373Z,16.13
2023-01-27T01:26:14.020Z,16.23
2023-01-27T01:28:40.950Z,16.00
2023-01-27T01:31:13.298Z,15.98
2023-01-27T01:33:40.267Z,16.50
2023-01-27T01:36:09.848Z,15.02
2023-01-27T01:38:36.949Z,15.35
2023-01-27T01:41:05.849Z,15.40
2023-01-27T01:43:33.104Z,15.57
2023-01-27T01:46:01.023Z,16.02
2023-01-27T01:48:49.734Z,15.85
2023-01-27T01:51:36.836Z,14.85
2023-01-27T01:54:33.851Z,15.43
2023-01-27T01:57:10.653Z,14.20
2023-01-27T01:59:46.445Z,15.80
2023-01-27T02:02:18.572Z,16.70
2023-01-27T02:05:00.751Z,16.65
2023-01-27T02:07:49.620Z,15.88
2023-01-27T02:10:16.587Z,17.10
2023-01-27T02:12:43.572Z,17.83
2023-01-27T02:15:11.609Z,16.58
2023-01-27T02:17:39.055Z,16.02
2023-01-27T02:20:27.051Z,16.08
2023-01-27T02:23:06.160Z,16.95
2023-01-27T02:25:35.888Z,18.10
2023-01-27T02:28:05.203Z,18.95
2023-01-27T02:30:32.671Z,17.75
2023-01-27T02:32:59.950Z,16.55
2023-01-27T02:35:41.476Z,17.08
2023-01-27T02:38:10.703Z,18.20
2023-01-27T02:40:38.066Z,18.05
2023-01-27T02:43:07.185Z,19.33
2023-01-27T02:45:34.036Z,17.58
2023-01-27T02:48:00.811Z,18.52
2023-01-27T02:50:27.649Z,17.80
2023-01-27T02:52:54.500Z,20.00
2023-01-27T02:55:21.364Z,19.25
2023-01-27T02:57:48.215Z,19.35
2023-01-27T03:00:23.555Z,19.25
2023-01-27T03:02:50.399Z,19.55
2023-01-27T03:05:17.899Z,20.13
2023-01-27T03:07:44.718Z,19.20
2023-01-27T03:10:11.685Z,21.95
2023-01-27T03:12:38.438Z,21.10
2023-01-27T03:15:24.289Z,21.23
2023-01-27T03:18:09.551Z,21.77
2023-01-27T03:20:37.013Z,20.15
2023-01-27T03:23:04.088Z,23.67
2023-01-27T03:25:30.955Z,23.08
2023-01-27T03:27:58.021Z,22.00
2023-01-27T03:30:24.862Z,22.13
2023-01-27T03:32:51.852Z,23.88
2023-01-27T03:35:18.750Z,23.65
2023-01-27T03:38:04.567Z,24.67
2023-01-27T03:40:50.153Z,22.88
2023-01-27T03:43:35.630Z,22.35
2023-01-27T03:46:21.122Z,24.00
2023-01-27T03:48:55.432Z,22.60
2023-01-27T03:51:24.877Z,23.27
2023-01-27T03:53:52.011Z,22.50
2023-01-27T03:56:20.891Z,22.48
2023-01-27T03:58:49.584Z,22.80
2023-01-27T04:01:19.292Z,23.00
2023-01-27T04:04:05.480Z,23.35
2023-01-27T04:06:54.662Z,25.35
2023-01-27T04:09:34.068Z,22.98
2023-01-27T04:12:04.487Z,22.48
2023-01-27T04:14:42.173Z,24.88
2023-01-27T04:17:15.275Z,24.73
2023-01-27T04:19:42.237Z,24.40
2023-01-27T04:22:11.492Z,23.17
2023-01-27T04:24:38.448Z,25.80
2023-01-27T04:27:13.300Z,25.38
2023-01-27T04:29:41.682Z,25.40
2023-01-27T04:32:10.942Z,25.88
2023-01-27T04:34:38.356Z,23.63
2023-01-27T04:37:07.238Z,24.05
2023-01-27T04:39:35.195Z,24.08
2023-01-27T04:42:02.114Z,23.88
2023-01-27T04:44:28.937Z,26.48
2023-01-27T04:46:56.055Z,26.48
2023-01-27T04:49:22.895Z,23.85
2023-01-27T04:51:49.979Z,22.30
2023-01-27T04:54:16.925Z,24.15
2023-01-27T04:56:56.883Z,25.73
2023-01-27T04:59:23.788Z,21.60
2023-01-27T05:01:50.641Z,22.65
2023-01-27T05:04:17.527Z,22.77
2023-01-27T05:06:44.317Z,24.25
2023-01-27T05:09:11.036Z,22.27
2023-01-27T05:11:37.821Z,22.98
2023-01-27T05:14:04.552Z,23.88
2023-01-27T05:16:31.404Z,21.38
2023-01-27T05:18:58.138Z,22.42
2023-01-27T05:21:31.011Z,22.52
2023-01-27T05:23:58.100Z,21.60
2023-01-27T05:26:27.262Z,19.70
2023-01-27T05:28:56.676Z,19.90
2023-01-27T05:31:26.197Z,21.40
2023-01-27T05:33:54.730Z,22.40
2023-01-27T05:36:23.620Z,20.52
2023-01-27T05:38:51.127Z,20.88
2023-01-27T05:41:19.506Z,22.33
2023-01-27T05:43:50.972Z,23.05
2023-01-27T05:46:20.048Z,20.42
2023-01-27T05:48:52.152Z,23.45
2023-01-27T05:51:21.322Z,20.35
2023-01-27T05:53:48.619Z,22.75
2023-01-27T05:56:19.542Z,22.08
2023-01-27T05:58:46.481Z,21.45
2023-01-27T06:01:24.137Z,19.38
2023-01-27T06:03:50.963Z,22.33
2023-01-27T06:06:20.867Z,22.65
2023-01-27T06:08:48.737Z,22.05
2023-01-27T06:11:17.969Z,22.80
2023-01-27T06:13:44.839Z,23.73
2023-01-27T06:16:13.983Z,21.48
2023-01-27T06:18:41.258Z,22.42
2023-01-27T06:21:10.295Z,22.23
2023-01-27T06:23:37.609Z,22.77
2023-01-27T06:26:10.317Z,21.73
2023-01-27T06:28:38.251Z,22.63
2023-01-27T06:31:09.583Z,21.65
2023-01-27T06:33:36.866Z,22.80
2023-01-27T06:36:05.886Z,22.30
2023-01-27T06:38:32.802Z,22.50
2023-01-27T06:41:00.681Z,23.63
2023-01-27T06:43:27.686Z,22.27
2023-01-27T06:45:55.053Z,23.27
2023-01-27T06:48:21.893Z,23.67
2023-01-27T06:50:48.683Z,25.83
2023-01-27T06:53:15.491Z,26.40
2023-01-27T06:55:42.312Z,26.23
2023-01-27T06:58:09.788Z,22.83
2023-01-27T07:00:37.318Z,23.10
2023-01-27T07:03:04.423Z,24.35
2023-01-27T07:05:32.004Z,23.83
2023-01-27T07:07:59.869Z,24.80
2023-01-27T07:10:27.603Z,23.05
2023-01-27T07:13:13.641Z,23.73
2023-01-27T07:15:40.965Z,20.48
2023-01-27T07:18:07.998Z,21.85
2023-01-27T07:20:34.781Z,23.98
2023-01-27T07:23:03.982Z,22.02
2023-01-27T07:25:32.436Z,20.88
2023-01-27T07:28:01.149Z,20.52
2023-01-27T07:30:28.501Z,20.45
2023-01-27T07:32:55.575Z,19.55
2023-01-27T07:35:22.921Z,21.73
2023-01-27T07:37:49.933Z,20.95
2023-01-27T07:40:16.932Z,22.00
2023-01-27T07:42:44.058Z,21.77
2023-01-27T07:45:11.067Z,20.90
2023-01-27T07:47:37.952Z,19.88
2023-01-27T07:50:05.141Z,20.90
2023-01-27T07:52:32.249Z,21.33
2023-01-27T07:54:59.045Z,19.90
2023-01-27T07:57:25.823Z,18.65
2023-01-27T07:59:56.711Z,20.23
2023-01-27T08:02:24.313Z,18.35
2023-01-27T08:04:53.604Z,19.70
2023-01-27T08:07:21.006Z,18.50
2023-01-27T08:09:47.960Z,18.85
2023-01-27T08:12:14.865Z,18.45
2023-01-27T08:14:41.711Z,18.15
2023-01-27T08:17:08.735Z,18.92
2023-01-27T08:19:35.570Z,17.58
2023-01-27T08:22:02.464Z,17.50
2023-01-27T08:24:29.345Z,16.73
2023-01-27T08:26:56.587Z,19.17
2023-01-27T08:29:23.380Z,16.20
2023-01-27T08:31:50.261Z,14.02
2023-01-27T08:34:17.215Z,16.95
2023-01-27T08:36:44.213Z,15.38
2023-01-27T08:39:11.371Z,16.05
2023-01-27T08:41:38.755Z,13.82
2023-01-27T08:44:05.992Z,15.10
2023-01-27T08:46:32.898Z,14.77
2023-01-27T08:48:59.684Z,14.20
2023-01-27T08:51:26.582Z,13.70
2023-01-27T08:53:53.339Z,12.73
2023-01-27T08:56:20.563Z,12.85
2023-01-27T08:58:48.506Z,14.70
2023-01-27T09:01:16.499Z,12.95
2023-01-27T09:03:43.488Z,14.85
2023-01-27T09:06:12.485Z,12.85
2023-01-27T09:08:40.369Z,12.13
2023-01-27T09:11:13.028Z,14.15
2023-01-27T09:13:39.772Z,14.73
2023-01-27T09:16:06.824Z,13.18
2023-01-27T09:18:34.587Z,14.73
2023-01-27T09:21:07.796Z,11.35
2023-01-27T09:23:34.894Z,13.13
2023-01-27T09:26:01.974Z,12.65
2023-01-27T09:28:28.808Z,12.30
2023-01-27T09:30:59.379Z,13.65
2023-01-27T09:33:27.101Z,14.60
2023-01-27T09:36:00.968Z,12.02
2023-01-27T09:38:31.580Z,12.30
2023-01-27T09:41:17.672Z,13.18
2023-01-27T09:44:35.875Z,13.20
2023-01-27T09:47:15.115Z,12.23
2023-01-27T09:49:48.084Z,12.38
2023-01-27T09:52:46.782Z,12.85
2023-01-27T09:55:27.794Z,12.88
2023-01-27T09:57:57.273Z,11.75
2023-01-27T10:00:45.176Z,11.35
2023-01-27T10:03:27.711Z,12.43
2023-01-27T10:06:22.454Z,12.02
2023-01-27T10:09:02.672Z,12.48
2023-01-27T10:11:53.861Z,12.10
2023-01-27T10:14:23.646Z,12.23
2023-01-27T10:17:02.334Z,11.48
2023-01-27T10:19:34.799Z,12.23
2023-01-27T10:22:30.524Z,10.68
2023-01-27T10:25:17.501Z,11.73
2023-01-27T10:27:52.248Z,11.63
2023-01-27T10:30:30.743Z,10.73
2023-01-27T10:33:18.283Z,12.63
2023-01-27T10:35:48.040Z,11.05
2023-01-27T10:38:36.729Z,10.70
2023-01-27T10:41:31.021Z,10.35
2023-01-27T10:44:51.575Z,10.55
2023-01-27T10:47:24.170Z,10.60
2023-01-27T10:50:19.805Z,9.70
2023-01-27T10:52:56.512Z,10.98
2023-01-27T10:55:33.719Z,10.80
2023-01-27T10:58:10.531Z,12.07
2023-01-27T11:01:18.163Z,10.80
2023-01-27T11:03:33.725Z,12.45
2023-01-27T11:06:06.709Z,11.88
2023-01-27T11:08:36.413Z,12.20
2023-01-27T11:11:25.908Z,11.40
2023-01-27T11:14:10.751Z,12.77
2023-01-27T11:16:40.444Z,12.00
2023-01-27T11:19:23.033Z,11.35
2023-01-27T11:28:48.562Z,11.25
2023-01-27T11:31:52.732Z,10.75
2023-01-27T11:34:25.760Z,10.45
2023-01-27T11:36:53.156Z,10.27
2023-01-27T11:39:20.577Z,8.90
2023-01-27T11:41:53.770Z,10.73
2023-01-27T11:44:23.866Z,11.65
2023-01-27T11:46:51.553Z,10.43
2023-01-27T11:49:43.129Z,10.52
2023-01-27T11:52:13.629Z,10.27
2023-01-27T11:54:52.854Z,10.90
2023-01-27T11:57:22.575Z,10.65
2023-01-27T12:00:04.527Z,10.35
2023-01-27T12:03:10.048Z,10.93
2023-01-27T12:05:45.659Z,11.10
2023-01-27T12:08:12.609Z,10.50
2023-01-27T12:10:44.466Z,10.73
2023-01-27T12:13:25.676Z,10.02
2023-01-27T12:15:59.818Z,11.70
2023-01-27T12:18:27.532Z,12.20
2023-01-27T12:21:06.792Z,11.35
2023-01-27T12:23:40.679Z,12.05
2023-01-27T12:26:09.738Z,11.75
2023-01-27T12:28:41.607Z,11.15
2023-01-27T12:31:08.443Z,12.88
2023-01-27T12:33:38.263Z,11.88
2023-01-27T12:36:12.225Z,11.40
2023-01-27T12:38:45.695Z,11.85
2023-01-27T12:41:19.833Z,12.55
2023-01-27T12:44:10.012Z,14.07
2023-01-27T12:46:41.904Z,13.10
2023-01-27T12:49:15.968Z,14.18
2023-01-27T12:51:48.573Z,14.40
2023-01-27T12:54:28.500Z,13.88
2023-01-27T12:57:00.994Z,14.85
2023-01-27T12:59:28.449Z,16.60
2023-01-27T13:02:25.179Z,15.38
2023-01-27T13:04:58.702Z,16.60
2023-01-27T13:07:31.880Z,15.23
2023-01-27T13:10:05.480Z,15.15
2023-01-27T13:12:49.273Z,16.27
2023-01-27T13:15:17.303Z,14.85
2023-01-27T13:17:46.392Z,14.13
2023-01-27T13:20:24.418Z,14.43
2023-01-27T13:22:53.591Z,15.25
2023-01-27T13:25:45.479Z,12.73
2023-01-27T13:28:20.815Z,14.00
2023-01-27T13:30:53.431Z,12.77
2023-01-27T13:33:31.820Z,14.02
2023-01-27T13:36:10.268Z,16.70
2023-01-27T13:39:03.945Z,14.20
2023-01-27T13:41:39.557Z,14.50
2023-01-27T13:44:25.511Z,16.08
2023-01-27T13:46:55.963Z,17.00
2023-01-27T13:49:34.572Z,17.92
2023-01-27T13:52:01.495Z,17.63
2023-01-27T13:54:30.283Z,18.50
2023-01-27T13:57:06.137Z,17.90
2023-01-27T13:59:58.375Z,19.05
2023-01-27T14:02:34.849Z,17.77
2023-01-27T14:05:54.271Z,21.35
2023-01-27T14:08:35.769Z,20.27
2023-01-27T14:11:48.053Z,17.75
2023-01-27T14:14:57.471Z,17.92
2023-01-27T14:17:27.470Z,16.88
2023-01-27T14:20:17.743Z,19.90
2023-01-27T14:22:51.928Z,18.45
2023-01-27T14:25:48.688Z,18.55
2023-01-27T14:28:52.884Z,17.85
2023-01-27T14:31:24.615Z,17.50
2023-01-27T14:34:28.303Z,17.90
2023-01-27T14:37:22.425Z,19.20
2023-01-27T14:40:22.029Z,17.60
2023-01-27T14:43:06.612Z,17.85
2023-01-27T14:45:37.652Z,20.00
2023-01-27T14:48:19.522Z,19.40
2023-01-27T14:51:12.175Z,21.02
2023-01-27T14:54:03.981Z,18.92
2023-01-27T14:57:01.323Z,19.30
2023-01-27T14:59:47.652Z,20.55
2023-01-27T15:02:17.194Z,18.15
2023-01-27T15:05:15.322Z,19.95
2023-01-27T15:07:51.257Z,20.63
2023-01-27T15:10:22.749Z,22.05
2023-01-27T15:13:27.543Z,21.83
2023-01-27T15:16:32.826Z,20.80
2023-01-27T15:19:33.810Z,20.60
2023-01-27T15:22:31.303Z,21.17
2023-01-27T15:25:02.835Z,21.13
2023-01-27T15:27:30.067Z,21.90
2023-01-27T15:30:19.986Z,20.88
2023-01-27T15:32:46.787Z,19.75
2023-01-27T15:35:36.621Z,18.77
2023-01-27T15:38:08.298Z,20.38
2023-01-27T15:41:11.765Z,18.92
2023-01-27T15:43:41.001Z,20.20
2023-01-27T15:46:31.909Z,18.50
2023-01-27T15:49:05.227Z,20.85
2023-01-27T15:51:36.726Z,20.02
2023-01-27T15:54:04.453Z,21.35
2023-01-27T15:56:48.167Z,20.80
2023-01-27T15:59:19.053Z,20.38
2023-01-27T16:01:49.108Z,19.92
2023-01-27T16:04:22.210Z,21.88
2023-01-27T16:06:52.005Z,19.88
2023-01-27T16:09:33.799Z,20.95
2023-01-27T16:12:28.302Z,20.95
2023-01-27T16:15:19.627Z,20.98
2023-01-27T16:17:56.952Z,20.95
2023-01-27T16:20:28.957Z,19.38
2023-01-27T16:23:08.024Z,22.73
2023-01-27T16:25:46.273Z,20.10
2023-01-27T16:28:16.091Z,21.88
2023-01-27T16:30:49.260Z,21.10
2023-01-27T16:33:22.400Z,21.50
2023-01-27T16:35:53.929Z,23.05
2023-01-27T16:38:27.780Z,21.83
2023-01-27T16:41:01.723Z,22.85
2023-01-27T16:43:32.681Z,22.92
2023-01-27T16:46:01.929Z,21.98
2023-01-27T16:48:32.021Z,21.38
2023-01-27T16:51:14.240Z,23.23
2023-01-27T16:53:48.504Z,23.83
2023-01-27T16:56:24.170Z,25.10
2023-01-27T16:58:52.207Z,23.02
2023-01-27T17:01:41.721Z,24.33
2023-01-27T17:04:20.015Z,22.33
2023-01-27T17:06:49.418Z,21.00
2023-01-27T17:09:24.146Z,22.92
2023-01-27T17:11:51.017Z,21.52
2023-01-27T17:14:29.891Z,23.27
2023-01-27T17:17:01.139Z,22.73
2023-01-27T17:19:36.840Z,21.48
2023-01-27T17:22:18.228Z,21.77
2023-01-27T17:24:56.523Z,22.13
2023-01-27T17:27:34.302Z,21.60
2023-01-27T17:30:06.349Z,23.83
2023-01-27T17:32:37.657Z,22.08
2023-01-27T17:35:25.511Z,23.40
2023-01-27T17:37:52.320Z,23.52
2023-01-27T17:40:22.474Z,21.98
2023-01-27T17:42:49.818Z,23.35
2023-01-27T17:45:43.240Z,24.05
2023-01-27T17:48:10.988Z,22.13
2023-01-27T17:50:39.353Z,24.20
2023-01-27T17:53:11.687Z,21.25
2023-01-27T17:55:39.177Z,24.52
2023-01-27T17:58:15.340Z,24.33
2023-01-27T18:00:44.183Z,24.40
2023-01-27T18:03:20.457Z,23.63
2023-01-27T18:05:49.372Z,23.70
2023-01-27T18:08:16.236Z,22.95
2023-01-27T18:10:45.935Z,25.10
2023-01-27T18:13:18.708Z,24.05
2023-01-27T18:15:58.932Z,24.40
2023-01-27T18:18:34.016Z,25.77
2023-01-27T18:21:06.505Z,23.70
2023-01-27T18:23:34.581Z,22.83
2023-01-27T18:26:14.168Z,24.20
2023-01-27T18:28:42.323Z,25.83
2023-01-27T18:31:29.857Z,27.38
2023-01-27T18:34:13.581Z,23.10
2023-01-27T18:36:54.333Z,25.95
2023-01-27T18:39:32.702Z,27.63
2023-01-27T18:42:00.451Z,26.67
2023-01-27T18:44:34.530Z,26.27
2023-01-27T18:47:19.615Z,27.33
2023-01-27T18:49:51.753Z,25.13
2023-01-27T18:52:18.616Z,26.60
2023-01-27T18:54:45.397Z,24.02
2023-01-27T18:57:12.241Z,27.88
2023-01-27T18:59:39.002Z,27.58
2023-01-27T19:02:14.800Z,26.65
2023-01-27T19:04:42.384Z,26.27
2023-01-27T19:07:18.003Z,28.00
2023-01-27T19:09:46.027Z,27.13
2023-01-27T19:12:13.127Z,26.95
2023-01-27T19:14:41.960Z,30.02
2023-01-27T19:17:22.709Z,28.23
2023-01-27T19:19:49.846Z,30.85
2023-01-27T19:22:18.251Z,28.95
2023-01-27T19:24:45.715Z,28.88
2023-01-27T19:27:17.535Z,29.58
2023-01-27T19:29:44.444Z,27.02
2023-01-27T19:32:13.507Z,28.23
2023-01-27T19:34:40.269Z,27.77
2023-01-27T19:37:16.928Z,29.00
2023-01-27T19:39:45.110Z,27.73
2023-01-27T19:42:14.026Z,26.70
2023-01-27T19:44:40.819Z,27.83
2023-01-27T19:47:12.622Z,29.58
2023-01-27T19:49:40.135Z,30.13
2023-01-27T19:52:06.980Z,27.15
2023-01-27T19:54:34.352Z,28.63
2023-01-27T19:57:01.294Z,29.52
2023-01-27T19:59:28.594Z,25.83
2023-01-27T20:01:56.748Z,27.25
2023-01-27T20:04:23.728Z,27.02
2023-01-27T20:06:50.765Z,24.90
2023-01-27T20:09:17.597Z,28.02
2023-01-27T20:11:44.635Z,25.20
2023-01-27T20:14:14.244Z,26.73
2023-01-27T20:16:42.218Z,26.77
2023-01-27T20:19:09.115Z,25.80
2023-01-27T20:21:35.993Z,27.35
2023-01-27T20:24:02.957Z,26.35
2023-01-27T20:26:31.270Z,26.33
2023-01-27T20:28:58.243Z,25.23
2023-01-27T20:31:25.065Z,26.27
2023-01-27T20:33:52.146Z,25.15
2023-01-27T20:36:21.546Z,24.17
2023-01-27T20:38:48.786Z,25.85
2023-01-27T20:41:18.863Z,24.42
2023-01-27T20:43:45.762Z,26.52
2023-01-27T20:46:16.489Z,27.40
2023-01-27T20:48:43.751Z,27.42
2023-01-27T20:51:13.180Z,24.27
2023-01-27T20:53:47.220Z,25.73
2023-01-27T20:56:23.105Z,27.52
2023-01-27T20:58:50.470Z,26.05
2023-01-27T21:01:19.515Z,26.08
2023-01-27T21:03:46.926Z,24.23
2023-01-27T21:06:15.758Z,25.15
2023-01-27T21:08:43.658Z,26.98
2023-01-27T21:11:13.003Z,26.35
2023-01-27T21:13:40.170Z,24.83
2023-01-27T21:16:07.692Z,25.63
2023-01-27T21:18:36.649Z,25.02
2023-01-27T21:21:04.262Z,26.00
2023-01-27T21:23:33.344Z,26.40
2023-01-27T21:26:11.658Z,26.50
2023-01-27T21:28:38.430Z,26.92
2023-01-27T21:31:11.606Z,26.25
2023-01-27T21:33:39.704Z,26.75
2023-01-27T21:36:10.424Z,24.88
2023-01-27T21:38:38.525Z,25.80
2023-01-27T21:41:37.233Z,25.10
2023-01-27T21:44:23.568Z,25.85
2023-01-27T21:46:50.625Z,25.73
2023-01-27T21:49:17.487Z,26.67
2023-01-27T21:51:44.256Z,26.40
2023-01-27T21:54:11.144Z,27.52
2023-01-27T21:56:37.897Z,26.13
2023-01-27T21:59:04.843Z,26.13
2023-01-27T22:01:31.906Z,25.52
2023-01-27T22:03:58.800Z,26.05
2023-01-27T22:06:25.670Z,26.00
2023-01-27T22:08:52.516Z,25.15
2023-01-27T22:11:19.763Z,22.55
2023-01-27T22:13:46.616Z,24.77
2023-01-27T22:16:15.783Z,24.35
2023-01-27T22:18:43.333Z,25.23
2023-01-27T22:21:10.360Z,22.75
2023-01-27T22:23:37.281Z,23.35
2023-01-27T22:26:07.849Z,23.98
2023-01-27T22:28:34.763Z,23.38
2023-01-27T22:31:02.363Z,22.63
2023-01-27T22:33:29.406Z,22.48
2023-01-27T22:36:03.156Z,21.15
2023-01-27T22:38:30.122Z,22.17
2023-01-27T22:40:58.487Z,22.63
2023-01-27T22:43:25.385Z,21.92
2023-01-27T22:45:52.231Z,21.50
2023-01-27T22:48:19.175Z,20.65
2023-01-27T22:50:46.011Z,21.23
2023-01-27T22:53:12.800Z,22.48
2023-01-27T22:55:39.826Z,21.88
2023-01-27T22:58:06.884Z,22.08
2023-01-27T23:00:33.758Z,21.13
2023-01-27T23:03:01.333Z,19.27
2023-01-27T23:05:28.146Z,18.92
2023-01-27T23:07:54.963Z,20.33
2023-01-27T23:10:21.734Z,20.30
2023-01-27T23:12:48.517Z,18.85
2023-01-27T23:15:15.723Z,18.92
2023-01-27T23:17:42.662Z,19.23
2023-01-27T23:20:10.563Z,20.88
2023-01-27T23:22:37.348Z,20.30
2023-01-27T23:25:04.539Z,20.60
2023-01-27T23:27:31.524Z,18.80
2023-01-27T23:29:58.349Z,19.23
2023-01-27T23:32:25.179Z,18.55
2023-01-27T23:34:51.962Z,17.35
2023-01-27T23:37:18.891Z,17.35
2023-01-27T23:39:48.756Z,19.77
2023-01-27T23:42:17.213Z,18.70
2023-01-27T23:44:44.277Z,18.42
2023-01-27T23:47:12.659Z,18.67
2023-01-27T23:49:39.498Z,19.23
2023-01-27T23:52:06.712Z,17.48
2023-01-27T23:54:33.814Z,19.75
2023-01-27T23:57:00.821Z,18.65
2023-01-27T23:59:27.640Z,20.50
